Time;durP1;ratioP1;P1;durP2;ratioP2;P2;SDS_P1;SDS_P2;PMS_P1;PMS_P2;Temp;Humidity;BMP_temperature;BMP_pressure;BME280_temperature;BME280_humidity;BME280_pressure;Samples;Min_cycle;Max_cycle;Signal;HPM_P1;HPM_P2
2023/05/27 00:02:21;;;;;;;7.47;3.38;;;13.00;98.80;;;12.66;81.53;97936.19;4998406;28;20034;-36
2023/05/27 00:04:47;;;;;;;6.97;3.05;;;12.90;99.20;;;12.69;83.70;97941.38;5001011;28;20034;-36
2023/05/27 00:07:13;;;;;;;7.75;3.00;;;12.90;99.70;;;12.66;85.47;97937.97;4998400;28;20115;-37
2023/05/27 00:09:38;;;;;;;6.63;2.60;;;12.80;99.90;;;12.48;86.28;97913.91;4982720;28;20034;-36
2023/05/27 00:12:04;;;;;;;8.00;3.22;;;12.80;99.90;;;12.59;86.17;97939.97;4996745;28;20761;-36
2023/05/27 00:14:30;;;;;;;7.95;3.05;;;12.80;99.90;;;12.61;85.67;97935.50;5002121;28;20061;-36
2023/05/27 00:16:56;;;;;;;8.25;3.30;;;12.80;99.90;;;12.64;84.00;97940.69;4998003;28;20041;-36
2023/05/27 00:19:23;;;;;;;7.28;3.00;;;12.80;99.90;;;12.73;82.19;97940.34;4999820;28;20038;-36
2023/05/27 00:21:52;;;;;;;8.52;3.22;;;12.90;99.50;;;12.77;83.15;97936.66;4998687;28;20061;-36
2023/05/27 00:24:18;;;;;;;7.28;2.60;;;13.00;99.90;;;12.80;82.22;97925.94;4996141;28;20044;-37
2023/05/27 00:26:44;;;;;;;9.43;3.03;;;13.10;99.70;;;12.80;80.17;97922.44;4999633;28;20112;-37
2023/05/27 00:29:10;;;;;;;6.82;3.15;;;13.20;99.20;;;13.02;80.43;97943.66;4999059;28;20033;-37
2023/05/27 00:31:35;;;;;;;6.03;2.80;;;13.20;99.20;;;13.05;81.35;97942.72;4999726;28;20371;-36
2023/05/27 00:34:01;;;;;;;5.38;2.47;;;13.30;99.50;;;13.06;80.88;97942.63;4999546;28;20038;-37
2023/05/27 00:36:27;;;;;;;6.10;3.05;;;13.30;99.30;;;13.06;79.42;97939.97;4999576;28;20516;-37
2023/05/27 00:38:53;;;;;;;5.93;2.60;;;13.30;99.00;;;13.07;77.80;97939.06;4998196;28;20064;-36
2023/05/27 00:41:19;;;;;;;7.50;2.80;;;13.40;98.70;;;13.02;76.26;97933.06;4997742;28;20030;-36
2023/05/27 00:43:45;;;;;;;8.65;2.40;;;13.30;98.30;;;12.89;75.37;97918.59;4982912;28;20029;-37
2023/05/27 00:46:11;;;;;;;9.25;3.20;;;13.30;98.10;;;12.92;75.94;97931.69;4999304;28;20088;-37
2023/05/27 00:48:37;;;;;;;9.43;2.80;;;13.20;98.20;;;12.87;76.63;97931.03;5000414;28;20041;-37
2023/05/27 00:51:03;;;;;;;9.00;2.92;;;13.10;98.40;;;12.80;75.78;97931.25;4999221;28;20265;-36
2023/05/27 00:53:40;;;;;;;9.00;2.80;;;13.10;98.30;;;12.83;74.06;97926.75;4999303;28;20315;-36
2023/05/27 00:56:07;;;;;;;8.70;3.10;;;13.10;97.90;;;12.80;74.05;97933.88;4999326;28;20026;-38
2023/05/27 00:58:35;;;;;;;11.05;3.15;;;13.10;97.90;;;12.79;73.83;97929.53;5001280;28;20103;-36
2023/05/27 01:01:01;;;;;;;9.15;2.83;;;13.10;97.80;;;12.73;75.11;97926.25;5000149;28;20041;-36
2023/05/27 01:03:28;;;;;;;10.25;2.85;;;13.00;98.10;;;12.69;76.34;97922.00;4998874;28;20223;-36
2023/05/27 01:06:18;;;;;;;9.20;2.75;;;12.90;98.30;;;12.64;77.18;97919.50;5000194;28;20042;-36
2023/05/27 01:09:08;;;;;;;7.97;2.60;;;12.90;98.60;;;12.63;78.56;97927.50;5000309;28;20385;-36
2023/05/27 01:11:51;;;;;;;10.20;2.88;;;12.90;99.00;;;12.58;78.88;97919.75;5000793;28;20041;-37
2023/05/27 01:14:20;;;;;;;7.18;2.60;;;12.80;99.00;;;12.54;79.36;97918.09;4982687;28;20034;-36
2023/05/27 01:16:48;;;;;;;8.50;2.60;;;12.80;99.10;;;12.48;80.15;97919.19;4983574;28;20450;-36
2023/05/27 01:19:30;;;;;;;7.15;2.60;;;12.70;99.30;;;12.39;82.46;97914.25;4978064;28;20546;-37
2023/05/27 01:21:59;;;;;;;11.05;3.17;;;12.70;99.80;;;12.33;84.53;97914.47;4998464;28;20069;-36
2023/05/27 01:24:24;;;;;;;9.20;3.08;;;12.60;99.90;;;12.26;87.45;97916.47;4999446;28;20034;-36
2023/05/27 01:26:50;;;;;;;6.70;3.08;;;12.50;99.90;;;12.16;89.23;97910.63;4998466;28;20515;-37
2023/05/27 01:29:16;;;;;;;5.28;2.55;;;12.40;99.90;;;12.11;90.05;97920.50;4999032;28;20030;-36
2023/05/27 01:31:57;;;;;;;8.23;2.70;;;12.40;99.90;;;12.02;90.32;97916.41;4997934;28;20030;-36
2023/05/27 01:34:36;;;;;;;8.85;3.22;;;12.30;99.90;;;11.94;91.05;97910.53;4983010;28;20033;-36
2023/05/27 01:37:07;;;;;;;9.65;3.10;;;12.20;99.90;;;11.90;91.74;97910.63;4999349;28;20017;-37
2023/05/27 01:39:34;;;;;;;5.68;2.80;;;12.20;99.90;;;11.75;92.34;97896.16;4996901;28;20030;-38
2023/05/27 01:42:01;;;;;;;5.75;2.60;;;12.10;99.90;;;11.80;93.52;97903.00;4987383;28;20017;-37
2023/05/27 01:44:30;;;;;;;11.18;2.80;;;12.00;99.90;;;11.74;94.02;97900.59;4982202;28;20554;-37
2023/05/27 01:47:03;;;;;;;7.20;3.05;;;12.00;99.90;;;11.65;95.08;97893.84;4982897;28;20038;-37
2023/05/27 01:49:30;;;;;;;8.15;3.22;;;12.00;99.90;;;11.65;96.63;97895.63;5002068;28;20466;-37
2023/05/27 01:51:56;;;;;;;7.40;2.92;;;11.90;99.90;;;11.59;97.00;97896.69;5000316;28;20056;-37
2023/05/27 01:54:21;;;;;;;6.10;3.10;;;11.80;99.90;;;11.57;97.08;97901.13;5002465;28;20038;-37
2023/05/27 01:56:47;;;;;;;6.32;3.08;;;11.80;99.90;;;11.53;97.52;97894.25;5002605;28;20022;-37
2023/05/27 01:59:13;;;;;;;8.25;3.40;;;11.80;99.90;;;11.49;98.27;97892.63;4999657;28;20242;-37
2023/05/27 02:01:40;;;;;;;9.30;2.72;;;11.70;99.90;;;11.43;98.58;97885.75;5001326;28;20022;-37
2023/05/27 02:04:05;;;;;;;11.52;3.30;;;11.70;99.90;;;11.42;99.23;97881.38;4999566;28;20038;-37
2023/05/27 02:06:32;;;;;;;7.70;3.33;;;11.70;99.90;;;11.39;98.90;97884.13;5002782;28;20069;-37
2023/05/27 02:08:57;;;;;;;9.70;3.08;;;11.60;99.90;;;11.37;99.03;97887.72;5000766;28;20022;-37
2023/05/27 02:11:23;;;;;;;7.53;3.08;;;11.60;99.90;;;11.33;100.00;97886.97;5002976;28;20030;-37
2023/05/27 02:13:49;;;;;;;9.00;3.38;;;11.60;99.90;;;11.31;100.00;97885.31;5003153;28;20092;-37
2023/05/27 02:16:15;;;;;;;8.25;2.53;;;11.60;99.90;;;11.28;100.00;97881.81;5001342;28;20034;-37
2023/05/27 02:18:41;;;;;;;8.40;3.42;;;11.50;99.90;;;11.23;100.00;97888.16;5000224;28;20037;-37
2023/05/27 02:21:07;;;;;;;11.93;3.40;;;11.50;99.90;;;11.27;100.00;97885.41;4999772;28;20041;-37
2023/05/27 02:23:33;;;;;;;8.25;3.33;;;11.50;99.90;;;11.28;100.00;97876.53;5002517;28;20042;-37
2023/05/27 02:26:00;;;;;;;8.68;2.85;;;11.50;99.90;;;11.19;100.00;97871.56;5000299;28;20096;-37
2023/05/27 02:28:26;;;;;;;7.10;3.03;;;11.50;99.90;;;11.25;100.00;97884.59;5001823;28;20069;-37
2023/05/27 02:30:52;;;;;;;9.45;3.22;;;11.50;99.90;;;11.23;100.00;97878.50;4999052;28;20025;-37
2023/05/27 02:33:18;;;;;;;9.10;3.17;;;11.50;99.90;;;11.20;100.00;97870.66;5003345;28;20426;-37
2023/05/27 02:35:43;;;;;;;9.02;3.20;;;11.50;99.90;;;11.24;100.00;97880.19;4992635;28;20053;-37
2023/05/27 02:38:09;;;;;;;10.02;3.42;;;11.60;99.90;;;11.24;100.00;97879.34;4999673;28;20037;-37
2023/05/27 02:40:35;;;;;;;5.80;2.90;;;11.50;99.90;;;11.20;100.00;97872.44;4987603;28;20034;-37
2023/05/27 02:43:00;;;;;;;9.73;3.38;;;11.50;99.90;;;11.20;100.00;97878.59;4998312;28;20124;-37
2023/05/27 02:45:26;;;;;;;9.05;3.00;;;11.50;99.90;;;11.11;100.00;97872.72;5000296;28;20418;-37
2023/05/27 02:47:52;;;;;;;8.88;2.92;;;11.50;99.90;;;11.16;100.00;97879.59;5000046;28;20135;-37
2023/05/27 02:50:18;;;;;;;7.13;2.70;;;11.40;99.90;;;11.14;100.00;97878.75;4999288;28;20042;-37
2023/05/27 02:52:43;;;;;;;9.10;2.97;;;11.40;99.90;;;11.13;100.00;97877.06;4999665;28;20034;-37
2023/05/27 02:55:09;;;;;;;12.90;3.00;;;11.40;99.90;;;11.11;100.00;97873.59;4999845;28;20040;-39
2023/05/27 02:57:35;;;;;;;7.80;2.92;;;11.40;99.90;;;11.11;100.00;97872.72;4999735;28;20041;-37
2023/05/27 03:00:01;;;;;;;9.60;2.83;;;11.40;99.90;;;11.08;100.00;97877.19;4999380;28;20439;-37
2023/05/27 03:02:27;;;;;;;9.73;2.90;;;11.40;99.90;;;10.89;100.00;97850.53;4999527;28;20041;-37
2023/05/27 03:04:55;;;;;;;9.38;3.03;;;11.30;99.90;;;10.99;100.00;97868.69;4998921;28;20034;-37
2023/05/27 03:07:21;;;;;;;6.38;3.10;;;11.30;99.90;;;10.92;100.00;97867.16;5001014;28;20030;-37
2023/05/27 03:09:46;;;;;;;9.80;3.03;;;11.20;99.90;;;10.94;100.00;97883.81;4999510;28;20041;-37
2023/05/27 03:12:12;;;;;;;8.18;2.55;;;11.20;99.90;;;10.88;100.00;97875.16;4998466;28;20041;-37
2023/05/27 03:14:38;;;;;;;8.50;3.45;;;11.10;99.90;;;10.83;100.00;97871.78;5000477;28;20037;-37
2023/05/27 03:17:04;;;;;;;10.57;3.65;;;11.10;99.90;;;10.81;100.00;97878.91;4998971;28;20034;-38
2023/05/27 03:19:29;;;;;;;12.02;3.72;;;11.10;99.90;;;10.78;100.00;97872.84;5002343;28;20128;-37
2023/05/27 03:21:55;;;;;;;10.05;3.40;;;11.10;99.90;;;10.78;100.00;97870.22;4998150;28;20445;-37
2023/05/27 03:24:21;;;;;;;9.95;3.13;;;11.00;99.90;;;10.77;100.00;97871.13;4999831;28;20088;-37
2023/05/27 03:26:47;;;;;;;8.93;3.15;;;11.00;99.90;;;10.75;100.00;97871.19;4997441;28;20483;-37
2023/05/27 03:29:12;;;;;;;7.57;2.95;;;11.00;99.90;;;10.73;100.00;97872.13;5000496;28;20041;-38
2023/05/27 03:31:38;;;;;;;8.25;3.30;;;11.00;99.90;;;10.73;100.00;97872.13;4998634;28;20053;-37
2023/05/27 03:34:04;;;;;;;9.93;3.38;;;11.00;99.90;;;10.71;100.00;97874.81;4982237;28;20048;-37
2023/05/27 03:36:30;;;;;;;6.78;3.17;;;11.00;99.90;;;10.69;100.00;97874.88;4999651;28;20026;-37
2023/05/27 03:38:56;;;;;;;8.65;3.47;;;11.00;99.90;;;10.69;100.00;97874.00;4998820;28;20482;-37
2023/05/27 03:41:22;;;;;;;8.85;3.15;;;11.00;99.90;;;10.68;100.00;97872.28;4995483;28;20068;-37
2023/05/27 03:43:48;;;;;;;7.85;2.83;;;10.90;99.90;;;10.69;100.00;97874.00;4997284;28;20125;-37
2023/05/27 03:46:13;;;;;;;8.88;3.22;;;11.00;99.90;;;10.72;100.00;97870.41;4998547;28;20056;-37
2023/05/27 03:48:39;;;;;;;9.73;3.67;;;11.00;99.90;;;10.70;100.00;97871.31;4999898;28;20034;-37
2023/05/27 03:51:05;;;;;;;7.97;3.22;;;11.00;99.90;;;10.67;100.00;97862.63;4997148;28;20327;-37
2023/05/27 03:53:31;;;;;;;8.52;2.90;;;11.00;99.90;;;10.73;100.00;97873.00;4982824;28;20026;-37
2023/05/27 03:55:56;;;;;;;11.70;3.55;;;11.00;99.90;;;10.75;100.00;97870.28;4998139;28;20033;-37
2023/05/27 03:58:22;;;;;;;10.43;3.17;;;11.00;99.90;;;10.52;100.00;97832.31;4998990;28;20474;-37
2023/05/27 04:00:48;;;;;;;10.15;3.35;;;11.00;99.90;;;10.78;100.00;97870.22;4998109;28;20029;-37
2023/05/27 04:03:14;;;;;;;7.20;3.28;;;11.10;99.90;;;10.77;100.00;97869.34;4999986;28;20034;-37
2023/05/27 04:05:40;;;;;;;10.05;3.38;;;11.10;99.90;;;10.78;100.00;97870.22;4998371;28;20040;-37
2023/05/27 04:08:06;;;;;;;10.05;3.25;;;11.10;99.90;;;10.78;100.00;97873.69;4999872;28;20048;-37
2023/05/27 04:10:32;;;;;;;12.77;3.38;;;11.10;99.90;;;10.80;100.00;97871.03;4995369;28;20037;-37
2023/05/27 04:12:57;;;;;;;14.48;3.47;;;11.10;99.90;;;10.81;100.00;97870.97;4997164;28;20057;-37
2023/05/27 04:15:23;;;;;;;9.77;3.30;;;11.10;99.90;;;10.81;100.00;97873.63;4995234;28;20034;-37
2023/05/27 04:17:49;;;;;;;11.48;3.70;;;11.10;99.90;;;10.83;100.00;97874.44;4998270;28;20026;-37
2023/05/27 04:20:15;;;;;;;11.75;3.40;;;11.10;99.90;;;10.85;100.00;97874.41;4998077;28;20060;-37
2023/05/27 04:22:41;;;;;;;7.68;3.15;;;11.20;99.90;;;10.91;100.00;97868.06;4998833;28;20483;-37
2023/05/27 04:25:08;;;;;;;8.15;3.30;;;11.20;99.90;;;10.83;100.00;97858.59;4996935;28;20045;-37
2023/05/27 04:27:33;;;;;;;8.65;3.03;;;11.20;99.90;;;10.93;100.00;97868.88;4997170;28;20108;-37
2023/05/27 04:29:59;;;;;;;11.02;3.20;;;11.20;99.90;;;10.93;100.00;97875.03;5000479;28;20037;-37
2023/05/27 04:32:37;;;;;;;7.82;3.42;;;11.20;99.90;;;10.98;100.00;97873.13;4998479;28;20022;-37
2023/05/27 04:35:06;;;;;;;7.60;3.28;;;11.30;99.90;;;11.01;100.00;97880.06;4998393;28;20167;-37
2023/05/27 04:37:33;;;;;;;9.80;3.28;;;11.30;99.90;;;11.02;100.00;97880.03;4997142;28;20478;-37
2023/05/27 04:39:59;;;;;;;8.50;3.60;;;11.30;99.90;;;11.02;100.00;97871.25;4997330;28;20803;-37
2023/05/27 04:42:24;;;;;;;8.30;3.40;;;11.40;99.90;;;11.08;100.00;97879.81;4997907;28;20025;-37
2023/05/27 04:44:50;;;;;;;10.35;3.53;;;11.40;99.90;;;11.12;100.00;97874.44;4997924;28;20088;-39
2023/05/27 04:47:16;;;;;;;10.40;3.22;;;11.40;99.90;;;11.18;100.00;97877.78;4998147;28;20458;-37
2023/05/27 04:49:43;;;;;;;10.82;3.58;;;11.50;99.90;;;11.23;100.00;97881.13;4998219;28;20026;-37
2023/05/27 04:52:09;;;;;;;14.10;3.58;;;11.50;99.90;;;11.21;100.00;97867.09;4998201;28;20061;-37
2023/05/27 04:54:35;;;;;;;9.07;3.47;;;11.50;99.90;;;11.33;100.00;97872.91;4998804;28;20461;-37
2023/05/27 04:57:01;;;;;;;8.02;3.47;;;11.60;99.90;;;11.33;100.00;97867.63;4997529;28;20405;-37
2023/05/27 04:59:45;;;;;;;15.82;4.05;;;11.70;99.90;;;11.40;100.00;97867.38;4999796;28;20397;-37
2023/05/27 05:02:21;;;;;;;11.55;3.80;;;11.70;99.90;;;11.45;100.00;97864.59;4997972;28;20077;-37
2023/05/27 05:04:47;;;;;;;8.45;3.42;;;11.80;99.90;;;11.49;100.00;97873.28;4998295;28;20029;-37
2023/05/27 05:07:13;;;;;;;14.55;3.53;;;11.80;99.90;;;11.53;100.00;97862.53;4999129;28;20041;-37
2023/05/27 05:09:39;;;;;;;12.63;3.83;;;11.80;99.90;;;11.58;100.00;97872.97;4997275;28;20033;-37
2023/05/27 05:12:06;;;;;;;10.00;4.10;;;11.90;99.90;;;11.63;100.00;97871.91;4995565;28;20042;-37
2023/05/27 05:14:31;;;;;;;10.15;3.33;;;11.90;99.90;;;11.68;100.00;97876.16;4999561;28;20065;-37
2023/05/27 05:16:57;;;;;;;8.18;2.88;;;12.00;99.90;;;11.72;100.00;97870.72;4998887;28;20113;-37
2023/05/27 05:19:23;;;;;;;11.00;3.20;;;12.00;99.90;;;11.80;100.00;97886.31;5000781;28;20056;-37
2023/05/27 05:21:49;;;;;;;8.38;3.22;;;12.10;99.90;;;11.92;100.00;97871.84;5000235;28;20025;-37
2023/05/27 05:24:14;;;;;;;8.32;3.50;;;12.20;99.90;;;11.97;100.00;97865.50;5001370;28;20138;-37
2023/05/27 05:26:40;;;;;;;13.02;4.40;;;12.30;99.90;;;12.19;100.00;97881.44;4999710;28;20033;-38
2023/05/27 05:29:06;;;;;;;11.02;3.47;;;12.40;99.90;;;12.32;100.00;97889.78;5001891;28;20030;-37
2023/05/27 05:31:31;;;;;;;9.23;3.58;;;12.50;99.90;;;12.38;100.00;97886.06;5002159;28;20501;-37
2023/05/27 05:33:57;;;;;;;12.80;3.80;;;12.60;99.90;;;12.40;100.00;97877.16;5002392;28;20013;-37
2023/05/27 05:36:23;;;;;;;10.20;3.60;;;12.70;99.90;;;12.51;100.00;97874.13;5000033;28;20494;-37
2023/05/27 05:38:49;;;;;;;11.35;3.72;;;12.80;99.90;;;12.58;100.00;97872.13;5001155;28;20025;-37
2023/05/27 05:41:15;;;;;;;11.07;3.60;;;12.80;99.90;;;12.71;100.00;97876.00;5001977;28;20429;-37
2023/05/27 05:43:40;;;;;;;11.05;3.35;;;12.90;99.90;;;12.86;100.00;97887.78;5000328;28;20116;-37
2023/05/27 05:46:07;;;;;;;9.60;3.72;;;13.10;99.90;;;13.00;100.00;97884.63;5002235;28;20036;-37
2023/05/27 05:48:32;;;;;;;8.35;3.30;;;13.20;99.90;;;13.15;100.00;97884.03;5004319;28;20116;-37
2023/05/27 05:51:00;;;;;;;11.38;3.88;;;13.30;99.90;;;13.25;98.89;97883.66;4998299;28;20115;-37
2023/05/27 05:53:26;;;;;;;13.38;3.88;;;13.40;99.90;;;13.37;96.37;97883.22;5003128;28;20029;-37
2023/05/27 05:55:52;;;;;;;9.75;3.63;;;13.60;99.90;;;13.50;92.96;97883.56;4999126;28;20096;-37
2023/05/27 05:58:17;;;;;;;9.50;3.65;;;13.70;99.90;;;13.60;90.36;97884.03;5002516;28;20058;-37
2023/05/27 06:00:43;;;;;;;11.98;3.78;;;13.80;99.90;;;13.70;88.51;97878.28;4997894;28;20046;-37
2023/05/27 06:03:09;;;;;;;10.40;3.58;;;13.90;99.90;;;13.83;88.33;97881.28;5003911;28;20041;-37
2023/05/27 06:05:34;;;;;;;14.80;3.70;;;14.00;99.90;;;13.95;86.75;97890.50;4999035;28;20042;-37
2023/05/27 06:08:00;;;;;;;16.02;3.92;;;14.10;99.90;;;14.12;86.89;97885.34;5002598;28;20148;-37
2023/05/27 06:10:26;;;;;;;15.13;3.88;;;14.30;99.90;;;14.22;84.19;97888.44;5001698;28;20050;-37
2023/05/27 06:12:51;;;;;;;12.00;3.33;;;14.40;99.90;;;14.29;83.74;97870.47;5001026;28;20370;-37
2023/05/27 06:15:17;;;;;;;9.00;3.50;;;14.50;99.90;;;14.43;83.08;97875.19;5002553;28;20117;-37
2023/05/27 06:17:44;;;;;;;10.50;3.20;;;14.60;99.90;;;14.63;82.82;97883.13;4999083;28;20037;-37
2023/05/27 06:20:10;;;;;;;10.05;3.30;;;14.80;99.90;;;14.83;81.45;97887.50;5001489;28;20540;-38
2023/05/27 06:22:36;;;;;;;15.38;3.88;;;14.90;99.90;;;15.00;79.62;97881.41;5000815;28;20038;-38
2023/05/27 06:25:02;;;;;;;10.93;3.85;;;15.10;99.90;;;15.13;76.34;97886.13;5001603;28;20091;-37
2023/05/27 06:27:27;;;;;;;8.50;3.58;;;15.30;99.90;;;15.31;76.36;97877.28;5000406;28;20479;-37
2023/05/27 06:29:53;;;;;;;7.25;3.35;;;15.40;99.90;;;15.44;76.38;97881.06;5000053;28;20266;-37
2023/05/27 06:32:19;;;;;;;14.95;3.35;;;15.50;99.90;;;15.53;75.64;97874.44;5000680;28;20030;-37
2023/05/27 06:34:46;;;;;;;13.05;3.50;;;15.60;99.90;;;15.64;74.82;97880.06;5000168;28;20109;-37
2023/05/27 06:37:11;;;;;;;9.57;3.08;;;15.70;99.90;;;15.78;74.90;97878.56;5000565;28;20026;-37
2023/05/27 06:39:37;;;;;;;12.02;3.85;;;15.80;99.90;;;15.71;68.26;97874.47;4995570;28;20084;-38
2023/05/27 06:42:03;;;;;;;9.32;3.35;;;15.90;99.90;;;15.87;69.48;97882.56;4994483;28;20033;-39
2023/05/27 06:44:29;;;;;;;14.27;3.63;;;15.90;99.90;;;15.98;69.82;97877.56;4998589;28;20179;-39
2023/05/27 06:46:54;;;;;;;10.90;2.97;;;16.00;99.90;;;16.10;65.30;97878.72;5001221;28;21015;-38
2023/05/27 06:49:20;;;;;;;10.77;3.55;;;16.20;99.90;;;16.21;67.40;97879.03;4997240;28;20028;-39
2023/05/27 06:51:46;;;;;;;10.55;3.22;;;16.30;99.90;;;16.23;65.91;97872.69;4998480;28;20052;-40
2023/05/27 06:54:12;;;;;;;11.93;3.92;;;16.40;99.90;;;16.36;64.34;97890.66;4999598;28;20030;-39
2023/05/27 06:56:38;;;;;;;15.00;3.67;;;16.50;99.90;;;16.45;64.69;97884.84;4999016;28;20045;-38
2023/05/27 06:59:03;;;;;;;7.68;3.50;;;16.60;99.90;;;16.53;64.23;97871.16;4999652;28;20072;-39
2023/05/27 07:01:31;;;;;;;12.45;3.88;;;16.60;99.90;;;16.64;62.68;97875.91;4998570;28;20046;-38
2023/05/27 07:03:56;;;;;;;16.45;3.88;;;16.70;99.60;;;16.69;63.53;97881.81;4997196;28;20033;-38
2023/05/27 07:06:22;;;;;;;8.48;3.33;;;16.80;99.40;;;16.76;61.94;97883.19;4995984;28;20087;-39
2023/05/27 07:08:48;;;;;;;10.45;3.67;;;16.80;99.10;;;16.77;65.30;97885.78;4999111;28;20040;-39
2023/05/27 07:11:13;;;;;;;15.07;3.78;;;16.80;99.60;;;16.76;63.10;97888.53;4998824;28;20026;-38
2023/05/27 07:13:39;;;;;;;12.38;4.07;;;16.90;99.40;;;16.86;63.66;97880.94;4979507;28;20049;-39
2023/05/27 07:16:05;;;;;;;11.23;3.45;;;16.90;99.20;;;16.84;61.92;97869.53;5000539;28;20045;-38
2023/05/27 07:18:31;;;;;;;10.70;3.65;;;16.90;98.80;;;17.06;61.60;97879.84;4998997;28;20038;-39
2023/05/27 07:20:56;;;;;;;9.68;3.85;;;17.00;99.00;;;17.20;63.28;97881.75;4998322;28;20386;-38
2023/05/27 07:23:22;;;;;;;17.63;3.78;;;17.20;99.40;;;17.18;59.31;97890.66;4999509;28;20033;-39
2023/05/27 07:25:48;;;;;;;10.55;3.55;;;17.20;98.20;;;17.26;60.58;97890.22;5000114;28;20060;-38
2023/05/27 07:28:13;;;;;;;11.07;3.97;;;17.20;98.50;;;17.30;60.48;97886.47;4999461;28;20029;-39
2023/05/27 07:30:39;;;;;;;12.25;3.63;;;17.30;98.30;;;17.25;58.24;97872.53;4997568;28;20486;-39
2023/05/27 07:33:05;;;;;;;11.05;3.65;;;17.40;97.70;;;17.41;59.36;97888.53;4999162;28;20116;-38
2023/05/27 07:35:30;;;;;;;13.80;3.95;;;17.40;97.80;;;17.44;60.49;97885.66;4996860;28;20490;-39
2023/05/27 07:37:56;;;;;;;10.02;3.33;;;17.50;98.20;;;17.55;63.85;97888.59;4997775;28;20026;-39
2023/05/27 07:40:22;;;;;;;8.85;3.65;;;17.60;98.40;;;17.64;61.54;97887.22;4999550;28;20565;-39
2023/05/27 07:42:48;;;;;;;9.02;4.00;;;17.70;98.60;;;17.71;59.03;97890.38;4999158;28;20030;-38
2023/05/27 07:45:13;;;;;;;12.00;4.25;;;17.80;97.60;;;17.70;55.39;97886.00;4997643;28;20128;-40
2023/05/27 07:47:39;;;;;;;12.23;3.72;;;17.80;96.20;;;17.74;57.60;97872.38;4999067;28;20026;-40
2023/05/27 07:50:05;;;;;;;8.45;3.47;;;17.80;96.90;;;17.81;58.74;97877.38;5000412;28;20156;-40
2023/05/27 07:52:31;;;;;;;11.13;4.10;;;17.90;97.40;;;17.83;58.53;97876.31;4998742;28;20064;-40
2023/05/27 07:54:57;;;;;;;12.40;3.70;;;17.90;97.60;;;17.92;58.01;97870.47;5000254;28;20022;-39
2023/05/27 07:57:23;;;;;;;13.65;4.10;;;18.00;97.40;;;17.93;58.36;97876.69;4998330;28;20037;-39
2023/05/27 07:59:49;;;;;;;12.18;4.28;;;18.10;97.50;;;17.96;54.96;97879.16;5001621;28;20394;-41
2023/05/27 08:02:14;;;;;;;9.85;4.07;;;18.10;96.30;;;17.90;56.25;97860.84;4997284;28;20046;-39
2023/05/27 08:04:43;;;;;;;13.07;3.65;;;18.10;96.30;;;18.10;56.74;97879.19;4997128;28;20502;-40
2023/05/27 08:07:09;;;;;;;13.50;4.38;;;18.20;96.70;;;18.15;57.14;97867.38;4998948;28;21269;-39
2023/05/27 08:09:35;;;;;;;13.63;4.50;;;18.30;96.30;;;18.19;55.31;97863.56;4998209;28;20057;-41
2023/05/27 08:12:01;;;;;;;14.93;4.70;;;18.30;96.20;;;18.27;55.83;97872.84;5000470;28;20029;-39
2023/05/27 08:14:27;;;;;;;15.30;4.38;;;18.40;96.10;;;18.22;54.28;97863.41;5004960;28;20441;-40
2023/05/27 08:16:54;;;;;;;8.68;3.72;;;18.40;95.50;;;18.28;56.12;97855.00;5000296;28;20045;-40
2023/05/27 08:19:20;;;;;;;15.00;3.70;;;18.40;96.00;;;18.42;54.40;97856.84;5000399;28;20052;-39
2023/05/27 08:21:46;;;;;;;9.50;3.63;;;18.50;96.20;;;18.46;56.90;97851.19;4999582;28;20510;-39
2023/05/27 08:24:12;;;;;;;11.40;4.57;;;18.50;96.50;;;18.52;53.80;97858.00;4998336;28;20041;-39
2023/05/27 08:26:38;;;;;;;9.95;3.72;;;18.60;95.40;;;18.62;53.33;97847.56;4998223;28;20037;-39
2023/05/27 08:29:05;;;;;;;15.93;3.70;;;18.70;95.00;;;18.65;53.83;97847.41;4999808;28;20040;-40
2023/05/27 08:31:30;;;;;;;7.60;3.53;;;18.70;95.20;;;18.79;53.08;97842.03;4997626;28;20463;-40
2023/05/27 08:33:56;;;;;;;10.25;3.83;;;18.80;95.00;;;18.85;55.61;97843.50;4998461;28;20117;-40
2023/05/27 08:36:22;;;;;;;11.38;4.28;;;19.00;96.20;;;19.00;55.86;97838.97;5000324;28;20482;-39
2023/05/27 08:38:48;;;;;;;14.02;4.60;;;19.10;95.70;;;18.97;54.54;97839.16;5000005;28;20031;-40
2023/05/27 08:41:14;;;;;;;12.48;3.92;;;19.10;94.70;;;19.07;52.71;97837.63;4998966;28;20418;-39
2023/05/27 08:43:41;;;;;;;9.02;3.50;;;19.10;94.80;;;19.18;54.63;97832.44;4997828;28;20049;-40
2023/05/27 08:46:08;;;;;;;8.48;4.13;;;19.20;95.60;;;19.15;53.88;97832.66;4981935;28;20036;-39
2023/05/27 08:48:34;;;;;;;13.30;4.15;;;19.30;95.40;;;19.17;52.31;97820.03;5001183;28;20072;-40
2023/05/27 08:51:01;;;;;;;10.27;4.30;;;19.30;94.40;;;19.17;51.18;97825.38;4979244;28;21067;-39
2023/05/27 08:53:28;;;;;;;11.93;4.07;;;19.30;93.80;;;19.27;51.05;97834.53;4999666;28;20124;-40
2023/05/27 08:55:56;;;;;;;13.13;4.03;;;19.40;93.90;;;19.26;52.93;97824.78;4996903;28;20112;-40
2023/05/27 08:58:22;;;;;;;11.35;4.43;;;19.40;94.40;;;19.39;51.53;97829.31;5000431;28;20033;-39
2023/05/27 09:00:48;;;;;;;9.55;4.05;;;19.40;94.10;;;19.42;52.28;97821.09;4997408;28;20053;-39
2023/05/27 09:03:14;;;;;;;13.63;4.10;;;19.60;94.30;;;19.54;53.43;97820.28;5000736;28;20469;-40
2023/05/27 09:05:41;;;;;;;10.02;3.75;;;19.60;94.50;;;19.55;52.48;97816.66;4979872;28;20073;-39
2023/05/27 09:08:07;;;;;;;14.32;4.25;;;19.70;94.30;;;19.61;52.11;97812.69;4999406;28;20048;-39
2023/05/27 09:10:40;;;;;;;10.90;4.43;;;19.70;94.20;;;19.73;51.78;97819.06;4998161;28;20369;-41
2023/05/27 09:13:06;;;;;;;12.65;4.10;;;19.90;94.10;;;19.88;51.45;97822.53;4998987;28;20345;-39
2023/05/27 09:15:33;;;;;;;8.20;4.40;;;20.00;94.30;;;19.89;50.56;97814.41;4999024;28;20074;-39
2023/05/27 09:17:59;;;;;;;8.23;4.45;;;20.00;93.10;;;20.00;51.33;97811.84;4998801;28;20121;-40
2023/05/27 09:20:29;;;;;;;9.25;3.92;;;20.10;93.60;;;20.12;49.05;97809.31;5001697;28;20067;-39
2023/05/27 09:23:03;;;;;;;9.30;4.00;;;20.20;92.70;;;20.22;51.43;97810.34;4996032;28;20070;-39
2023/05/27 09:25:29;;;;;;;9.63;4.25;;;20.30;93.80;;;20.26;51.46;97806.53;4999232;28;20061;-40
2023/05/27 09:27:56;;;;;;;11.20;4.55;;;20.40;93.70;;;20.36;49.22;97812.91;4995662;28;20038;-39
2023/05/27 09:30:24;;;;;;;10.23;4.28;;;20.50;92.40;;;20.40;47.98;97809.09;4999821;28;20049;-41
2023/05/27 09:32:50;;;;;;;8.10;4.10;;;20.50;91.90;;;20.37;47.87;97803.94;4992594;28;20044;-40
2023/05/27 09:35:17;;;;;;;9.93;4.45;;;20.50;91.80;;;20.43;48.67;97810.69;4997308;28;20084;-40
2023/05/27 09:37:45;;;;;;;10.82;4.88;;;20.50;92.00;;;20.35;49.28;97787.13;4996644;28;20486;-40
2023/05/27 09:40:12;;;;;;;10.75;4.63;;;20.60;92.50;;;20.51;49.70;97807.44;4999494;28;20048;-39
2023/05/27 09:42:50;;;;;;;6.13;3.95;;;20.60;92.70;;;20.55;48.64;97795.56;4997583;28;20030;-41
2023/05/27 09:45:19;;;;;;;12.07;4.40;;;20.60;91.30;;;20.61;48.83;97781.75;5001026;28;20033;-39
2023/05/27 09:47:50;;;;;;;7.03;4.57;;;20.70;92.10;;;20.69;48.09;97798.16;4995052;28;20037;-40
2023/05/27 09:50:17;;;;;;;12.18;4.68;;;20.80;92.00;;;20.83;47.96;97791.75;5001067;28;20069;-39
2023/05/27 09:52:44;;;;;;;10.10;4.03;;;20.90;91.90;;;20.81;49.49;97796.38;4996299;28;20069;-40
2023/05/27 09:55:12;;;;;;;8.75;4.60;;;20.90;92.20;;;20.86;48.06;97785.34;4999680;28;20062;-39
2023/05/27 09:57:39;;;;;;;10.65;4.85;;;20.90;91.80;;;20.90;47.71;97797.53;4999284;28;20026;-40
2023/05/27 10:00:11;;;;;;;11.25;4.50;;;21.00;91.50;;;20.91;47.10;97785.88;4998572;28;20014;-39
2023/05/27 10:02:38;;;;;;;9.68;4.30;;;21.00;90.90;;;20.91;47.19;97786.72;5000343;28;20038;-41
2023/05/27 10:05:07;;;;;;;9.55;4.18;;;21.00;91.20;;;20.97;47.70;97783.56;4989896;28;20046;-40
2023/05/27 10:07:41;;;;;;;8.43;4.22;;;21.00;91.40;;;21.12;48.52;97781.63;5000554;28;20371;-40
2023/05/27 10:10:09;;;;;;;9.90;4.10;;;21.20;92.10;;;21.27;47.03;97787.66;5000419;28;20038;-40
2023/05/27 10:12:40;;;;;;;13.32;4.28;;;21.30;90.90;;;21.37;46.20;97777.09;4981032;28;20429;-40